createdAt,value
2023-02-23T00:02:18.360Z,20.03
2023-02-23T00:04:50.294Z,18.37
2023-02-23T00:07:20.049Z,19.50
2023-02-23T00:09:47.331Z,19.37
2023-02-23T00:12:16.879Z,19.20
2023-02-23T00:14:49.028Z,19.23
2023-02-23T00:17:17.528Z,18.87
2023-02-23T00:19:49.712Z,19.03
2023-02-23T00:22:16.884Z,19.33
2023-02-23T00:24:47.770Z,17.77
2023-02-23T00:27:19.023Z,20.30
2023-02-23T00:29:49.791Z,18.10
2023-02-23T00:32:31.144Z,18.63
2023-02-23T00:34:58.508Z,19.00
2023-02-23T00:37:29.984Z,18.20
2023-02-23T00:39:57.416Z,18.67
2023-02-23T00:42:29.698Z,19.47
2023-02-23T00:44:57.275Z,18.20
2023-02-23T00:47:26.566Z,18.37
2023-02-23T00:49:53.553Z,19.40
2023-02-23T00:52:23.624Z,18.83
2023-02-23T00:54:51.470Z,18.83
2023-02-23T00:57:22.281Z,17.10
2023-02-23T00:59:49.257Z,17.63
2023-02-23T01:02:16.215Z,19.67
2023-02-23T01:04:43.172Z,19.67
2023-02-23T01:07:12.895Z,17.80
2023-02-23T01:09:40.026Z,18.90
2023-02-23T01:12:07.665Z,17.80
2023-02-23T01:14:35.841Z,18.53
2023-02-23T01:17:07.771Z,18.80
2023-02-23T01:19:39.800Z,18.70
2023-02-23T01:22:09.396Z,19.40
2023-02-23T01:24:38.784Z,18.37
2023-02-23T01:27:08.015Z,17.93
2023-02-23T01:29:35.069Z,17.80
2023-02-23T01:32:05.053Z,19.03
2023-02-23T01:34:32.920Z,18.40
2023-02-23T01:36:59.922Z,18.23
2023-02-23T01:39:27.098Z,19.37
2023-02-23T01:41:55.555Z,19.00
2023-02-23T01:44:22.401Z,18.13
2023-02-23T01:46:50.289Z,18.80
2023-02-23T01:49:25.961Z,18.70
2023-02-23T01:52:03.745Z,18.33
2023-02-23T01:54:50.400Z,18.87
2023-02-23T01:57:24.719Z,17.87
2023-02-23T01:59:54.844Z,17.00
2023-02-23T02:02:33.539Z,19.20
2023-02-23T02:05:06.450Z,18.70
2023-02-23T02:07:40.065Z,16.90
2023-02-23T02:10:11.536Z,18.20
2023-02-23T02:12:45.992Z,19.50
2023-02-23T02:15:18.808Z,18.80
2023-02-23T02:18:18.749Z,17.90
2023-02-23T02:21:11.665Z,17.90
2023-02-23T02:24:08.843Z,18.60
2023-02-23T02:26:47.810Z,19.37
2023-02-23T02:29:39.754Z,19.07
2023-02-23T02:32:24.764Z,19.00
2023-02-23T02:35:46.695Z,19.17
2023-02-23T02:38:50.690Z,16.90
2023-02-23T02:41:42.356Z,19.23
2023-02-23T02:44:31.028Z,19.93
2023-02-23T02:47:09.574Z,17.77
2023-02-23T02:50:06.942Z,18.27
2023-02-23T02:52:52.657Z,18.70
2023-02-23T02:55:26.464Z,20.23
2023-02-23T02:57:58.122Z,16.73
2023-02-23T03:00:53.943Z,18.63
2023-02-23T03:04:02.821Z,19.33
2023-02-23T03:06:51.387Z,18.87
2023-02-23T03:10:18.160Z,18.10
2023-02-23T03:13:37.712Z,17.97
2023-02-23T03:16:55.438Z,18.10
2023-02-23T03:20:24.263Z,17.90
2023-02-23T03:24:09.907Z,17.53
2023-02-23T03:27:17.333Z,18.83
2023-02-23T03:30:12.247Z,19.60
2023-02-23T03:33:11.575Z,19.63
2023-02-23T03:36:29.117Z,18.97
2023-02-23T03:39:31.638Z,21.03
2023-02-23T03:42:21.378Z,21.80
2023-02-23T03:45:08.970Z,21.03
2023-02-23T03:48:00.635Z,20.80
2023-02-23T03:51:05.823Z,22.63
2023-02-23T03:54:04.937Z,20.60
2023-02-23T03:56:56.040Z,22.03
2023-02-23T03:59:49.145Z,21.87
2023-02-23T04:02:38.254Z,22.77
2023-02-23T04:05:30.525Z,24.10
2023-02-23T04:08:19.948Z,24.00
2023-02-23T04:11:15.067Z,23.97
2023-02-23T04:13:44.957Z,24.33
2023-02-23T04:16:12.422Z,26.63
2023-02-23T04:18:45.051Z,25.73
2023-02-23T04:21:14.990Z,26.10
2023-02-23T04:23:43.463Z,27.70
2023-02-23T04:26:10.472Z,26.77
2023-02-23T04:28:39.934Z,26.70
2023-02-23T04:31:07.090Z,27.97
2023-02-23T04:33:36.432Z,24.90
2023-02-23T04:36:03.590Z,25.83
2023-02-23T04:38:30.630Z,28.27
2023-02-23T04:40:57.652Z,26.43
2023-02-23T04:43:24.616Z,27.60
2023-02-23T04:45:54.184Z,25.87
2023-02-23T04:48:26.847Z,26.93
2023-02-23T04:50:54.980Z,26.33
2023-02-23T04:53:25.293Z,28.70
2023-02-23T04:55:52.527Z,26.23
2023-02-23T04:58:21.849Z,29.60
2023-02-23T05:00:49.757Z,26.50
2023-02-23T05:03:17.650Z,28.07
2023-02-23T05:05:45.292Z,25.50
2023-02-23T05:08:12.505Z,25.80
2023-02-23T05:10:41.620Z,26.37
2023-02-23T05:13:11.532Z,26.57
2023-02-23T05:15:41.990Z,26.27
2023-02-23T05:18:09.386Z,25.77
2023-02-23T05:20:36.784Z,27.40
2023-02-23T05:23:03.914Z,25.37
2023-02-23T05:25:31.028Z,25.20
2023-02-23T05:27:58.092Z,27.17
2023-02-23T05:30:25.133Z,25.37
2023-02-23T05:32:52.189Z,24.53
2023-02-23T05:35:21.367Z,26.40
2023-02-23T05:37:50.572Z,25.97
2023-02-23T05:40:20.794Z,26.00
2023-02-23T05:42:50.827Z,28.40
2023-02-23T05:45:18.004Z,25.67
2023-02-23T05:47:45.066Z,26.67
2023-02-23T05:50:14.549Z,26.67
2023-02-23T05:52:44.368Z,25.73
2023-02-23T05:55:15.181Z,27.37
2023-02-23T05:57:42.872Z,27.30
2023-02-23T06:00:13.420Z,25.97
2023-02-23T06:02:41.696Z,25.67
2023-02-23T06:05:11.371Z,27.87
2023-02-23T06:07:38.712Z,25.17
2023-02-23T06:10:06.622Z,24.60
2023-02-23T06:12:33.654Z,27.00
2023-02-23T06:15:03.443Z,25.27
2023-02-23T06:17:33.003Z,25.13
2023-02-23T06:20:03.475Z,24.47
2023-02-23T06:22:31.044Z,25.43
2023-02-23T06:25:04.994Z,27.00
2023-02-23T06:27:34.344Z,26.27
2023-02-23T06:30:03.324Z,25.67
2023-02-23T06:32:30.354Z,25.43
2023-02-23T06:34:57.285Z,25.20
2023-02-23T06:37:27.067Z,26.03
2023-02-23T06:39:56.487Z,26.23
2023-02-23T06:42:24.275Z,26.57
2023-02-23T06:44:53.696Z,28.67
2023-02-23T06:47:20.681Z,28.47
2023-02-23T06:49:47.832Z,29.90
2023-02-23T06:52:17.445Z,30.77
2023-02-23T06:54:45.336Z,30.77
2023-02-23T06:57:17.049Z,31.17
2023-02-23T06:59:43.913Z,31.67
2023-02-23T07:02:14.454Z,31.40
2023-02-23T07:04:41.342Z,32.70
2023-02-23T07:07:08.294Z,30.87
2023-02-23T07:09:35.334Z,30.47
2023-02-23T07:12:07.167Z,31.67
2023-02-23T07:14:37.666Z,32.13
2023-02-23T07:17:05.423Z,31.77
2023-02-23T07:19:35.284Z,34.03
2023-02-23T07:22:03.535Z,33.57
2023-02-23T07:24:30.771Z,33.33
2023-02-23T07:26:57.937Z,32.13
2023-02-23T07:29:28.365Z,31.53
2023-02-23T07:32:00.374Z,31.13
2023-02-23T07:34:27.479Z,35.20
2023-02-23T07:36:58.990Z,34.10
2023-02-23T07:39:25.937Z,32.40
2023-02-23T07:41:57.491Z,34.53
2023-02-23T07:44:28.951Z,36.00
2023-02-23T07:46:56.450Z,34.97
2023-02-23T07:49:23.385Z,35.43
2023-02-23T07:51:55.446Z,37.50
2023-02-23T07:54:26.070Z,37.57
2023-02-23T07:56:53.459Z,37.33
2023-02-23T07:59:24.987Z,35.67
2023-02-23T08:01:52.436Z,34.97
2023-02-23T08:04:22.642Z,36.40
2023-02-23T08:06:52.295Z,36.40
2023-02-23T08:09:21.737Z,38.90
2023-02-23T08:11:51.890Z,38.00
2023-02-23T08:14:22.033Z,37.80
2023-02-23T08:16:51.805Z,37.80
2023-02-23T08:19:23.873Z,39.70
2023-02-23T08:21:51.115Z,38.30
2023-02-23T08:24:20.783Z,36.87
2023-02-23T08:26:50.485Z,36.67
2023-02-23T08:29:17.612Z,37.63
2023-02-23T08:31:45.084Z,37.60
2023-02-23T08:34:12.250Z,38.40
2023-02-23T08:36:40.568Z,40.20
2023-02-23T08:39:10.017Z,36.83
2023-02-23T08:41:39.708Z,35.70
2023-02-23T08:44:06.759Z,40.27
2023-02-23T08:46:34.290Z,36.80
2023-02-23T08:49:01.255Z,36.50
2023-02-23T08:51:28.197Z,38.17
2023-02-23T08:53:57.542Z,38.13
2023-02-23T08:56:27.133Z,39.47
2023-02-23T08:58:54.281Z,36.67
2023-02-23T09:01:24.616Z,37.30
2023-02-23T09:03:51.533Z,36.53
2023-02-23T09:06:22.278Z,37.57
2023-02-23T09:08:49.733Z,37.30
2023-02-23T09:11:17.043Z,36.03
2023-02-23T09:13:44.678Z,37.37
2023-02-23T09:16:11.799Z,35.37
2023-02-23T09:18:44.248Z,34.53
2023-02-23T09:21:19.145Z,34.40
2023-02-23T09:23:48.237Z,36.43
2023-02-23T09:26:18.896Z,34.77
2023-02-23T09:28:46.504Z,35.70
2023-02-23T09:31:18.300Z,34.60
2023-02-23T09:33:45.556Z,33.03
2023-02-23T09:36:20.612Z,33.10
2023-02-23T09:38:55.122Z,30.90
2023-02-23T09:41:51.267Z,31.83
2023-02-23T09:44:48.193Z,30.67
2023-02-23T09:47:32.845Z,30.07
2023-02-23T09:50:09.469Z,30.47
2023-02-23T09:52:47.672Z,31.40
2023-02-23T09:55:15.166Z,30.10
2023-02-23T09:57:49.959Z,29.17
2023-02-23T10:00:27.737Z,27.63
2023-02-23T10:03:25.033Z,26.80
2023-02-23T10:06:03.232Z,26.50
2023-02-23T10:09:14.489Z,25.47
2023-02-23T10:12:08.355Z,24.57
2023-02-23T10:14:56.213Z,25.10
2023-02-23T10:17:31.849Z,23.70
2023-02-23T10:20:29.426Z,24.53
2023-02-23T10:23:04.052Z,24.27
2023-02-23T10:25:36.075Z,22.93
2023-02-23T10:28:05.497Z,22.37
2023-02-23T10:30:34.714Z,25.47
2023-02-23T10:33:47.474Z,23.67
2023-02-23T10:36:19.681Z,24.27
2023-02-23T10:38:47.346Z,23.23
2023-02-23T10:41:15.035Z,22.03
2023-02-23T10:43:42.326Z,21.17
2023-02-23T10:46:24.373Z,20.83
2023-02-23T10:48:57.077Z,20.67
2023-02-23T10:51:32.710Z,19.30
2023-02-23T10:54:08.064Z,19.97
2023-02-23T10:56:50.154Z,19.70
2023-02-23T10:59:21.621Z,19.30
2023-02-23T11:02:01.358Z,18.03
2023-02-23T11:04:35.074Z,17.90
2023-02-23T11:07:17.865Z,19.50
2023-02-23T11:09:48.485Z,29.13
2023-02-23T11:12:23.333Z,23.93
2023-02-23T11:14:53.199Z,19.33
2023-02-23T11:17:28.699Z,17.47
2023-02-23T11:20:25.528Z,16.43
2023-02-23T11:22:52.565Z,13.70
2023-02-23T11:25:31.123Z,18.53
2023-02-23T11:27:58.890Z,17.17
2023-02-23T11:30:42.940Z,19.27
2023-02-23T11:33:21.676Z,17.00
2023-02-23T11:35:48.582Z,19.50
2023-02-23T11:38:30.601Z,20.60
2023-02-23T11:41:07.295Z,21.27
2023-02-23T11:43:36.070Z,21.80
2023-02-23T11:46:06.105Z,22.70
2023-02-23T11:48:44.051Z,23.23
2023-02-23T11:51:11.122Z,24.07
2023-02-23T11:53:46.703Z,22.97
2023-02-23T11:56:22.668Z,24.90
2023-02-23T11:58:55.858Z,25.70
2023-02-23T12:01:49.513Z,25.77
2023-02-23T12:04:37.069Z,28.33
2023-02-23T12:07:41.638Z,31.30
2023-02-23T12:10:33.004Z,35.00
2023-02-23T12:13:17.626Z,37.23
2023-02-23T12:15:54.769Z,35.00
2023-02-23T12:18:43.325Z,39.17
2023-02-23T12:21:41.192Z,38.27
2023-02-23T12:24:26.809Z,40.17
2023-02-23T12:27:35.202Z,39.60
2023-02-23T12:30:41.145Z,38.00
2023-02-23T12:33:30.043Z,36.70
2023-02-23T12:36:04.141Z,36.27
2023-02-23T12:38:56.900Z,38.80
2023-02-23T12:41:37.846Z,38.30
2023-02-23T12:44:17.389Z,36.53
2023-02-23T12:46:54.421Z,36.27
2023-02-23T12:49:45.355Z,36.47
2023-02-23T12:52:29.436Z,36.97
2023-02-23T12:55:01.211Z,35.30
2023-02-23T12:57:54.896Z,36.60
2023-02-23T13:00:58.216Z,37.70
2023-02-23T13:03:46.708Z,37.10
2023-02-23T13:06:37.839Z,37.17
2023-02-23T13:09:19.649Z,35.10
2023-02-23T13:12:53.830Z,36.60
2023-02-23T13:15:45.645Z,39.97
2023-02-23T13:18:24.654Z,40.30
2023-02-23T13:21:21.891Z,37.40
2023-02-23T13:24:19.011Z,38.20
2023-02-23T13:26:59.252Z,40.30
2023-02-23T13:29:48.693Z,39.43
2023-02-23T13:32:32.065Z,38.63
2023-02-23T13:35:01.841Z,38.57
2023-02-23T13:37:43.257Z,42.00
2023-02-23T13:40:43.187Z,39.97
2023-02-23T13:43:34.865Z,41.80
2023-02-23T13:46:26.424Z,38.93
2023-02-23T13:49:02.374Z,38.50
2023-02-23T13:51:52.151Z,37.43
2023-02-23T13:54:25.132Z,39.27
2023-02-23T13:56:59.824Z,37.20
2023-02-23T13:59:43.955Z,38.40
2023-02-23T14:02:46.736Z,35.67
2023-02-23T14:05:15.624Z,37.57
2023-02-23T14:07:46.254Z,36.80
2023-02-23T14:10:24.861Z,36.87
2023-02-23T14:13:48.797Z,37.07
2023-02-23T14:16:22.656Z,36.07
2023-02-23T14:19:07.831Z,36.13
2023-02-23T14:21:52.278Z,38.37
2023-02-23T14:24:25.096Z,35.77
2023-02-23T14:27:40.427Z,37.83
2023-02-23T14:30:11.018Z,34.80
2023-02-23T14:32:46.133Z,38.20
2023-02-23T14:35:34.656Z,37.77
2023-02-23T14:38:11.752Z,36.10
2023-02-23T14:40:46.988Z,33.60
2023-02-23T14:43:49.398Z,36.43
2023-02-23T14:46:26.495Z,35.30
2023-02-23T14:49:21.412Z,36.30
2023-02-23T14:51:58.557Z,39.00
2023-02-23T14:54:31.139Z,35.83
2023-02-23T14:57:04.645Z,35.77
2023-02-23T14:59:42.605Z,36.50
2023-02-23T15:02:18.849Z,35.73
2023-02-23T15:04:48.367Z,36.10
2023-02-23T15:07:32.184Z,36.13
2023-02-23T15:10:03.873Z,34.33
2023-02-23T15:12:39.424Z,35.80
2023-02-23T15:15:23.146Z,36.90
2023-02-23T15:18:01.071Z,35.40
2023-02-23T15:23:04.444Z,36.00
2023-02-23T15:25:41.486Z,36.50
2023-02-23T15:28:25.626Z,34.87
2023-02-23T15:31:00.919Z,34.40
2023-02-23T15:33:31.184Z,37.33
2023-02-23T15:36:23.291Z,35.57
2023-02-23T15:38:57.266Z,35.07
2023-02-23T15:41:36.839Z,33.83
2023-02-23T15:44:20.148Z,35.00
2023-02-23T15:46:54.777Z,34.77
2023-02-23T15:49:25.174Z,33.83
2023-02-23T15:52:03.681Z,33.47
2023-02-23T15:55:06.408Z,35.63
2023-02-23T15:58:01.012Z,33.87
2023-02-23T16:00:44.448Z,34.77
2023-02-23T16:03:33.403Z,34.97
2023-02-23T16:06:08.277Z,33.90
2023-02-23T16:08:36.847Z,32.90
2023-02-23T16:11:19.199Z,33.53
2023-02-23T16:13:47.087Z,32.40
2023-02-23T16:16:20.577Z,32.63
2023-02-23T16:18:54.402Z,33.97
2023-02-23T16:21:25.597Z,31.20
2023-02-23T16:24:05.636Z,33.53
2023-02-23T16:26:41.745Z,32.73
2023-02-23T16:29:18.581Z,33.80
2023-02-23T16:31:59.910Z,30.73
2023-02-23T16:34:37.281Z,33.83
2023-02-23T16:37:20.125Z,34.53
2023-02-23T16:39:48.111Z,32.50
2023-02-23T16:42:30.721Z,30.70
2023-02-23T16:45:01.148Z,31.57
2023-02-23T16:47:41.442Z,31.40
2023-02-23T16:50:24.525Z,30.60
2023-02-23T16:52:53.564Z,30.07
2023-02-23T16:55:27.246Z,30.10
2023-02-23T16:58:05.619Z,30.37
2023-02-23T17:00:34.250Z,29.97
2023-02-23T17:03:06.309Z,26.23
2023-02-23T17:05:35.892Z,26.07
2023-02-23T17:08:02.993Z,28.27
2023-02-23T17:10:35.979Z,23.57
2023-02-23T17:13:11.121Z,24.70
2023-02-23T17:15:53.637Z,24.50
2023-02-23T17:21:02.694Z,16.93
2023-02-23T17:23:50.755Z,17.90
2023-02-23T17:26:23.653Z,16.90
2023-02-23T17:28:51.351Z,16.23
2023-02-23T17:31:20.433Z,15.77
2023-02-23T17:33:50.252Z,12.83
2023-02-23T17:36:20.832Z,12.70
2023-02-23T17:38:50.929Z,12.27
2023-02-23T17:41:20.405Z,11.57
2023-02-23T17:43:49.839Z,11.93
2023-02-23T17:46:19.714Z,12.00
2023-02-23T17:48:49.535Z,9.80
2023-02-23T17:51:24.061Z,10.30
2023-02-23T17:53:51.075Z,10.70
2023-02-23T17:56:19.940Z,9.20
2023-02-23T17:58:50.637Z,8.20
2023-02-23T18:01:20.474Z,9.97
2023-02-23T18:03:48.088Z,11.00
2023-02-23T18:06:17.547Z,14.57
2023-02-23T18:08:47.058Z,13.13
2023-02-23T18:11:18.490Z,15.70
2023-02-23T18:13:51.160Z,13.90
2023-02-23T18:16:19.253Z,11.67
2023-02-23T18:18:48.880Z,13.73
2023-02-23T18:21:20.041Z,11.60
2023-02-23T18:23:50.858Z,10.23
2023-02-23T18:26:23.916Z,9.10
2023-02-23T18:28:54.216Z,8.80
2023-02-23T18:31:25.296Z,9.67
2023-02-23T18:33:56.425Z,9.87
2023-02-23T18:36:30.991Z,9.90
2023-02-23T18:39:04.097Z,9.27
2023-02-23T18:41:31.335Z,9.23
2023-02-23T18:44:02.765Z,11.00
2023-02-23T18:46:32.526Z,9.93
2023-02-23T18:48:59.807Z,8.77
2023-02-23T18:51:26.998Z,8.00
2023-02-23T18:53:54.840Z,7.33
2023-02-23T18:56:28.110Z,6.03
2023-02-23T18:59:01.471Z,6.40
2023-02-23T19:01:42.541Z,5.50
2023-02-23T19:04:10.613Z,5.20
2023-02-23T19:06:40.221Z,7.10
2023-02-23T19:09:12.677Z,6.70
2023-02-23T19:11:41.671Z,5.50
2023-02-23T19:14:18.457Z,5.00
2023-02-23T19:16:52.093Z,4.10
2023-02-23T19:19:19.138Z,4.90
2023-02-23T19:21:48.874Z,4.40
2023-02-23T19:24:16.211Z,4.17
2023-02-23T19:26:43.185Z,4.57
2023-02-23T19:29:12.324Z,5.40
2023-02-23T19:31:42.316Z,3.87
2023-02-23T19:34:11.275Z,4.80
2023-02-23T19:36:38.126Z,5.13
2023-02-23T19:39:16.007Z,4.13
2023-02-23T19:41:45.358Z,5.03
2023-02-23T19:44:12.550Z,4.00
2023-02-23T19:46:44.415Z,4.10
2023-02-23T19:49:15.627Z,5.40
2023-02-23T19:51:44.319Z,5.17
2023-02-23T19:54:12.177Z,5.00
2023-02-23T19:56:39.330Z,4.80
2023-02-23T19:59:06.734Z,6.00
2023-02-23T20:01:33.809Z,4.57
2023-02-23T20:04:06.634Z,5.47
2023-02-23T20:06:40.953Z,4.13
2023-02-23T20:09:10.439Z,4.70
2023-02-23T20:11:37.463Z,5.40
2023-02-23T20:14:08.229Z,4.20
2023-02-23T20:16:35.992Z,4.50
2023-02-23T20:19:05.591Z,4.50
2023-02-23T20:21:32.717Z,4.37
2023-02-23T20:24:03.802Z,3.67
2023-02-23T20:26:35.378Z,4.10
2023-02-23T20:29:11.255Z,4.00
2023-02-23T20:31:41.955Z,4.70
2023-02-23T20:34:11.165Z,3.77
2023-02-23T20:36:40.114Z,4.50
2023-02-23T20:39:09.274Z,3.60
2023-02-23T20:41:36.286Z,4.37
2023-02-23T20:44:03.760Z,4.23
2023-02-23T20:46:30.992Z,3.80
2023-02-23T20:48:59.472Z,4.03
2023-02-23T20:51:27.390Z,4.33
2023-02-23T20:53:57.649Z,3.40
2023-02-23T20:56:32.759Z,3.93
2023-02-23T20:58:59.965Z,3.73
2023-02-23T21:01:29.480Z,3.90
2023-02-23T21:03:56.995Z,4.90
2023-02-23T21:06:26.015Z,3.97
2023-02-23T21:09:02.746Z,4.77
2023-02-23T21:11:32.187Z,3.60
2023-02-23T21:14:02.195Z,4.17
2023-02-23T21:16:32.244Z,3.60
2023-02-23T21:19:05.234Z,4.67
2023-02-23T21:21:47.109Z,3.00
2023-02-23T21:24:19.028Z,3.90
2023-02-23T21:26:48.378Z,3.57
2023-02-23T21:29:18.533Z,3.43
2023-02-23T21:31:47.132Z,3.13
2023-02-23T21:34:18.861Z,3.50
2023-02-23T21:36:51.372Z,3.43
2023-02-23T21:39:21.538Z,3.10
2023-02-23T21:41:53.184Z,2.77
2023-02-23T21:44:20.235Z,4.37
2023-02-23T21:46:47.830Z,3.60
2023-02-23T21:49:18.958Z,2.37
2023-02-23T21:51:48.549Z,3.30
2023-02-23T21:54:18.526Z,3.73
2023-02-23T21:56:45.485Z,3.13
2023-02-23T21:59:12.415Z,3.23
2023-02-23T22:01:41.859Z,3.73
2023-02-23T22:04:14.793Z,3.40
2023-02-23T22:06:44.061Z,3.27
2023-02-23T22:09:12.671Z,3.43
2023-02-23T22:11:45.528Z,2.80
2023-02-23T22:14:22.163Z,3.80
2023-02-23T22:16:52.335Z,3.30
2023-02-23T22:19:24.771Z,3.70
2023-02-23T22:21:51.935Z,3.47
2023-02-23T22:24:19.429Z,3.07
2023-02-23T22:26:54.210Z,3.97
2023-02-23T22:29:24.304Z,3.20
2023-02-23T22:31:54.563Z,2.53
2023-02-23T22:34:22.248Z,2.50
2023-02-23T22:36:51.356Z,3.20
2023-02-23T22:39:18.677Z,2.80
2023-02-23T22:41:47.796Z,2.80
2023-02-23T22:44:20.330Z,2.17
2023-02-23T22:46:50.487Z,2.60
2023-02-23T22:49:19.861Z,3.70
2023-02-23T22:51:47.091Z,2.93
2023-02-23T22:54:14.296Z,2.50
2023-02-23T22:56:44.072Z,2.70
2023-02-23T22:59:17.520Z,2.73
2023-02-23T23:01:50.316Z,1.90
2023-02-23T23:04:19.432Z,2.00
2023-02-23T23:06:46.585Z,3.07
2023-02-23T23:09:14.879Z,3.17
2023-02-23T23:11:45.249Z,3.20
2023-02-23T23:14:18.246Z,2.53
2023-02-23T23:16:53.293Z,2.80
2023-02-23T23:19:25.292Z,2.10
2023-02-23T23:21:55.270Z,2.53
2023-02-23T23:24:24.865Z,2.37
2023-02-23T23:27:00.460Z,2.63
2023-02-23T23:29:32.545Z,2.67
2023-02-23T23:32:02.425Z,1.80
2023-02-23T23:34:33.432Z,2.70
2023-02-23T23:37:04.283Z,2.60
2023-02-23T23:39:31.224Z,3.00
2023-02-23T23:42:01.955Z,2.47
2023-02-23T23:44:29.344Z,2.70
2023-02-23T23:46:57.029Z,2.43
2023-02-23T23:49:27.036Z,2.07
2023-02-23T23:51:58.544Z,2.80
2023-02-23T23:54:38.698Z,1.93
2023-02-23T23:57:08.065Z,2.67
2023-02-23T23:59:35.872Z,2.50
